Shelby, South Dakota
Current Conditions -  °F | °C
As of 10:55 AM on Thursday 23 Oct 2014 (Local Time) from K9V9 Reporting Station
Clear Clear  
Wind Chill: 54°   Ceiling: Unl
Heat Index: 54°   Visibility: 10mi
Dew Point: 47°   Wind: 5mph
Humidity: 77%   Direction: 230°SW
Pressure: 30"   Gusts: NA
Location:  43.7732°N, 99.1697°W
Report Text: K9V9 231555Z AUTO 23004KT 10SM CLR 12/08 A3000 RMK AO2 T01210081
Loading
Personal Weather Stations






























Interactive Weather Map
Tropical Storm Tracking
New forecast layout! Learn more

10-Day Weather Forecast

Advertisements
Track Severe Weather on mobile